Time;durP1;ratioP1;P1;durP2;ratioP2;P2;SDS_P1;SDS_P2;PMS_P1;PMS_P2;Temp;Humidity;BMP_temperature;BMP_pressure;BME280_temperature;BME280_humidity;BME280_pressure;Samples;Min_cycle;Max_cycle;Signal;HPM_P1;HPM_P2
2023/05/13 00:00:32;;;;;;;14.30;9.02;;;;;;;9.67;100.00;93480.88;5068626;28;20040;-73
2023/05/13 00:02:59;;;;;;;19.92;11.27;;;;;;;9.65;100.00;93473.38;5069031;28;20059;-73
2023/05/13 00:05:25;;;;;;;22.77;10.57;;;;;;;9.67;100.00;93481.63;5067532;28;20056;-72
2023/05/13 00:07:52;;;;;;;18.55;10.77;;;;;;;9.60;100.00;93488.53;5059158;28;20440;-73
2023/05/13 00:10:19;;;;;;;18.20;10.10;;;;;;;9.64;100.00;93497.44;5043605;28;20052;-73
2023/05/13 00:12:47;;;;;;;15.45;9.45;;;;;;;9.55;100.00;93496.03;5068881;28;20444;-73
2023/05/13 00:15:14;;;;;;;17.95;9.93;;;;;;;9.40;100.00;93491.88;5068799;28;20421;-72
2023/05/13 00:17:41;;;;;;;19.05;11.68;;;;;;;9.42;100.00;93514.75;5068503;28;20497;-72
2023/05/13 00:20:09;;;;;;;20.45;14.02;;;;;;;9.36;100.00;93488.13;5068506;28;20098;-73
2023/05/13 00:22:35;;;;;;;19.20;12.98;;;;;;;9.43;100.00;93503.50;5068718;28;20058;-73
2023/05/13 00:25:02;;;;;;;22.77;12.05;;;;;;;9.28;100.00;93507.03;5068309;28;20048;-73
2023/05/13 00:27:31;;;;;;;17.88;12.85;;;;;;;9.17;100.00;93505.81;5068633;28;20102;-73
2023/05/13 00:29:59;;;;;;;19.02;12.60;;;;;;;9.12;100.00;93502.28;5068536;28;20519;-73
2023/05/13 00:32:26;;;;;;;14.15;12.40;;;;;;;9.20;100.00;93502.09;5068675;28;20405;-73
2023/05/13 00:34:53;;;;;;;19.17;13.23;;;;;;;9.14;100.00;93495.16;5068300;28;20045;-73
2023/05/13 00:37:20;;;;;;;19.88;14.68;;;;;;;9.09;100.00;93498.31;5067842;28;20467;-73
2023/05/13 00:39:47;;;;;;;18.48;14.75;;;;;;;9.13;100.00;93486.72;5042277;28;20052;-73
2023/05/13 00:42:14;;;;;;;19.65;15.77;;;;;;;8.90;100.00;93457.09;5068307;28;20044;-73
2023/05/13 00:44:41;;;;;;;19.98;13.27;;;;;;;9.14;100.00;93484.91;5068696;28;20110;-72
2023/05/13 00:47:11;;;;;;;19.38;13.43;;;;;;;8.89;100.00;93475.22;5068054;28;20130;-73
2023/05/13 00:49:38;;;;;;;19.67;13.82;;;;;;;8.92;100.00;93480.72;5067691;28;20037;-73
2023/05/13 00:52:05;;;;;;;18.58;13.85;;;;;;;9.02;100.00;93488.03;5062468;28;20052;-72
2023/05/13 00:54:32;;;;;;;19.95;13.82;;;;;;;9.11;100.00;93498.91;5047752;28;20087;-72
2023/05/13 00:56:59;;;;;;;20.02;17.10;;;;;;;9.17;100.00;93497.34;5059628;28;20044;-72
2023/05/13 00:59:28;;;;;;;20.83;15.02;;;;;;;9.09;100.00;93499.09;5067643;28;20489;-72
2023/05/13 01:02:03;;;;;;;19.50;16.58;;;;;;;9.17;100.00;93503.25;5067756;28;20564;-72
2023/05/13 01:04:39;;;;;;;23.08;16.48;;;;;;;9.20;100.00;93505.44;5067200;28;20255;-72
2023/05/13 01:07:14;;;;;;;21.85;16.25;;;;;;;9.24;100.00;93503.28;5067599;28;20497;-73
2023/05/13 01:09:54;;;;;;;20.40;16.92;;;;;;;9.30;100.00;93499.94;5067970;28;20130;-72
2023/05/13 01:12:23;;;;;;;22.30;16.50;;;;;;;9.21;100.00;93504.47;5067648;28;20044;-72
2023/05/13 01:14:58;;;;;;;19.00;16.10;;;;;;;9.24;100.00;93493.03;5067687;28;20511;-72
2023/05/13 01:17:32;;;;;;;18.92;15.27;;;;;;;9.29;100.00;93502.69;5067899;28;20409;-72
2023/05/13 01:20:02;;;;;;;17.58;14.02;;;;;;;9.12;100.00;93504.84;5067234;28;20440;-73
2023/05/13 01:22:31;;;;;;;21.55;13.75;;;;;;;8.99;100.00;93505.56;5067276;28;20076;-72
2023/05/13 01:24:57;;;;;;;16.45;13.45;;;;;;;8.79;100.00;93501.97;5067366;28;20040;-72
2023/05/13 01:27:24;;;;;;;22.05;15.55;;;;;;;8.62;100.00;93501.50;5067338;28;20516;-72
2023/05/13 01:29:53;;;;;;;19.45;15.95;;;;;;;8.63;100.00;93507.41;5067315;28;20079;-73
2023/05/13 01:32:22;;;;;;;21.83;16.05;;;;;;;8.64;100.00;93504.66;5067154;28;20113;-72
2023/05/13 01:34:51;;;;;;;18.38;14.70;;;;;;;8.71;100.00;93504.69;5067069;28;20041;-73
2023/05/13 01:37:18;;;;;;;18.27;14.30;;;;;;;8.72;100.00;93515.72;5067733;28;20044;-73
2023/05/13 01:39:47;;;;;;;17.73;14.85;;;;;;;8.69;100.00;93512.56;5066612;28;20056;-73
2023/05/13 01:42:14;;;;;;;18.25;14.70;;;;;;;8.69;100.00;93498.97;5067031;28;20052;-73
2023/05/13 01:44:41;;;;;;;16.85;14.52;;;;;;;8.54;100.00;93499.09;5066788;28;20048;-73
2023/05/13 01:47:08;;;;;;;19.65;14.95;;;;;;;8.64;100.00;93498.72;5067086;28;20040;-73
2023/05/13 01:49:35;;;;;;;22.05;16.20;;;;;;;8.64;100.00;93489.28;5066313;28;20044;-73
2023/05/13 01:52:03;;;;;;;19.80;16.50;;;;;;;8.69;100.00;93494.63;5067524;28;20056;-73
2023/05/13 01:54:30;;;;;;;20.42;16.50;;;;;;;8.75;100.00;93492.28;5053495;28;20048;-73
2023/05/13 01:56:58;;;;;;;18.75;15.93;;;;;;;8.82;100.00;93496.47;5067059;28;20045;-73
2023/05/13 01:59:24;;;;;;;21.65;15.95;;;;;;;8.92;100.00;93501.22;5067143;28;20044;-73
2023/05/13 02:01:51;;;;;;;20.60;17.15;;;;;;;9.01;100.00;93503.59;5066616;28;20052;-72
2023/05/13 02:04:18;;;;;;;20.30;16.63;;;;;;;9.04;100.00;93505.78;5066009;28;20036;-73
2023/05/13 02:06:45;;;;;;;21.27;15.65;;;;;;;9.08;100.00;93512.91;5067513;28;20048;-73
2023/05/13 02:09:11;;;;;;;21.95;15.98;;;;;;;9.18;100.00;93512.56;5040747;28;20048;-72
2023/05/13 02:11:38;;;;;;;19.65;16.45;;;;;;;9.23;100.00;93522.97;5066568;28;20087;-72
2023/05/13 02:14:06;;;;;;;19.75;16.15;;;;;;;9.28;100.00;93519.88;5041045;28;20084;-72
2023/05/13 02:16:33;;;;;;;19.25;14.98;;;;;;;9.32;100.00;93520.25;5066205;28;20094;-72
2023/05/13 02:19:00;;;;;;;20.35;14.85;;;;;;;9.35;100.00;93512.97;5067045;28;20398;-72
2023/05/13 02:21:27;;;;;;;19.63;15.18;;;;;;;9.39;100.00;93517.72;5066892;28;20416;-72
2023/05/13 02:23:53;;;;;;;18.85;14.25;;;;;;;9.42;100.00;93519.88;5066619;28;20420;-72
2023/05/13 02:26:21;;;;;;;16.63;13.60;;;;;;;9.25;100.00;93491.28;5066601;28;20090;-72
2023/05/13 02:28:47;;;;;;;18.17;14.00;;;;;;;9.45;100.00;93522.06;5066834;28;20059;-72
2023/05/13 02:31:16;;;;;;;17.80;13.88;;;;;;;9.42;100.00;93518.13;5066423;28;20044;-72
2023/05/13 02:33:42;;;;;;;21.40;15.40;;;;;;;9.42;100.00;93520.69;5067058;28;20509;-72
2023/05/13 02:36:09;;;;;;;20.05;16.15;;;;;;;9.41;100.00;93533.69;5066458;28;20090;-72
2023/05/13 02:38:38;;;;;;;20.42;15.18;;;;;;;9.37;100.00;93535.84;5066156;28;20413;-72
2023/05/13 02:41:05;;;;;;;20.60;14.52;;;;;;;9.31;100.00;93537.41;5066104;28;20056;-73
2023/05/13 02:43:32;;;;;;;17.98;14.43;;;;;;;9.28;100.00;93537.81;5066836;28;20447;-72
2023/05/13 02:45:59;;;;;;;19.60;13.82;;;;;;;9.06;100.00;93532.00;5066418;28;20131;-72
2023/05/13 02:48:27;;;;;;;15.88;12.98;;;;;;;9.00;100.00;93523.31;5067010;28;20118;-72
2023/05/13 02:50:54;;;;;;;17.75;13.73;;;;;;;9.00;100.00;93531.00;5052796;28;20055;-72
2023/05/13 02:53:21;;;;;;;18.52;14.85;;;;;;;8.97;100.00;93535.75;5066892;28;20052;-72
2023/05/13 02:55:47;;;;;;;20.08;14.98;;;;;;;8.92;100.00;93544.78;5067047;28;20146;-72
2023/05/13 02:58:14;;;;;;;20.10;15.43;;;;;;;9.00;100.00;93541.25;5066433;28;20044;-72
2023/05/13 03:00:41;;;;;;;18.52;14.73;;;;;;;8.89;100.00;93534.91;5066671;28;20048;-72
2023/05/13 03:03:08;;;;;;;17.00;14.10;;;;;;;8.91;100.00;93539.84;5070682;28;20044;-72
2023/05/13 03:05:36;;;;;;;20.23;15.20;;;;;;;8.82;100.00;93539.22;5070020;28;20044;-72
2023/05/13 03:08:03;;;;;;;19.85;16.02;;;;;;;8.89;100.00;93537.47;5070473;28;20075;-72
2023/05/13 03:10:30;;;;;;;19.80;15.30;;;;;;;8.86;100.00;93517.38;5070214;28;20056;-72
2023/05/13 03:12:57;;;;;;;22.70;16.38;;;;;;;8.98;100.00;93527.06;5070071;28;20516;-72
2023/05/13 03:15:24;;;;;;;18.92;15.38;;;;;;;8.95;100.00;93526.44;5069877;28;20037;-72
2023/05/13 03:17:50;;;;;;;25.63;15.57;;;;;;;9.04;100.00;93539.09;5070005;28;20059;-72
2023/05/13 03:20:17;;;;;;;23.83;16.67;;;;;;;9.06;100.00;93532.81;5070250;28;20105;-72
2023/05/13 03:22:46;;;;;;;20.92;15.45;;;;;;;9.08;100.00;93532.63;5069905;28;20045;-72
2023/05/13 03:25:12;;;;;;;22.60;15.80;;;;;;;9.12;100.00;93533.03;5069766;28;20051;-72
2023/05/13 03:27:39;;;;;;;22.95;15.90;;;;;;;9.16;100.00;93544.47;5069915;28;20051;-72
2023/05/13 03:30:08;;;;;;;24.05;15.55;;;;;;;9.18;100.00;93543.31;5069873;28;20409;-72
2023/05/13 03:32:35;;;;;;;20.67;14.63;;;;;;;9.18;100.00;93542.50;5070019;28;20052;-72
2023/05/13 03:35:02;;;;;;;20.63;14.07;;;;;;;9.18;100.00;93552.75;5069859;28;20052;-72
2023/05/13 03:37:29;;;;;;;21.65;15.45;;;;;;;9.20;100.00;93561.03;5070385;28;20381;-72
2023/05/13 03:39:57;;;;;;;23.38;14.98;;;;;;;9.19;100.00;93565.38;5069581;28;20552;-72
2023/05/13 03:42:25;;;;;;;18.10;14.60;;;;;;;9.19;100.00;93562.81;5070149;28;20059;-72
2023/05/13 03:44:55;;;;;;;20.98;14.68;;;;;;;9.21;100.00;93562.59;5069298;28;20051;-72
2023/05/13 03:47:22;;;;;;;21.38;14.90;;;;;;;9.18;100.00;93555.31;5069722;28;20048;-72
2023/05/13 03:49:49;;;;;;;24.15;16.08;;;;;;;9.22;100.00;93559.09;5069618;28;20570;-72
2023/05/13 03:52:16;;;;;;;19.45;14.50;;;;;;;9.23;100.00;93566.56;5043616;28;20040;-73
2023/05/13 03:54:43;;;;;;;20.58;15.48;;;;;;;9.27;100.00;93576.44;5069566;28;20059;-72
2023/05/13 03:57:11;;;;;;;20.02;14.43;;;;;;;9.27;100.00;93584.13;5055427;28;20094;-72
2023/05/13 03:59:38;;;;;;;20.23;14.70;;;;;;;9.30;100.00;93587.09;5069647;28;20082;-72
2023/05/13 04:02:05;;;;;;;19.33;14.77;;;;;;;9.29;100.00;93592.41;5068643;28;20546;-72
2023/05/13 04:04:31;;;;;;;19.58;14.65;;;;;;;9.28;100.00;93594.19;5069474;28;20405;-73
2023/05/13 04:06:58;;;;;;;16.73;14.57;;;;;;;9.30;100.00;93584.53;5069229;28;20049;-72
2023/05/13 04:09:25;;;;;;;18.20;14.45;;;;;;;9.35;100.00;93589.88;5069128;28;20125;-72
2023/05/13 04:11:52;;;;;;;18.25;15.50;;;;;;;9.33;100.00;93584.16;5065874;28;20049;-72
2023/05/13 04:14:20;;;;;;;18.55;15.27;;;;;;;9.31;100.00;93582.78;5058075;28;20052;-72
2023/05/13 04:16:47;;;;;;;19.77;15.00;;;;;;;9.35;100.00;93587.31;5068909;28;20460;-72
2023/05/13 04:19:13;;;;;;;19.73;16.02;;;;;;;9.31;100.00;93591.25;5068926;28;20052;-72
2023/05/13 04:21:40;;;;;;;35.30;20.33;;;;;;;9.41;100.00;93595.22;5068941;28;20711;-72
2023/05/13 04:24:07;;;;;;;28.55;18.35;;;;;;;9.49;100.00;93597.59;5068468;28;20513;-72
2023/05/13 04:26:34;;;;;;;23.42;17.05;;;;;;;9.40;100.00;93581.59;5068484;28;20045;-72
2023/05/13 04:29:00;;;;;;;21.45;16.20;;;;;;;9.54;100.00;93605.50;5068863;28;20048;-72
2023/05/13 04:31:28;;;;;;;23.33;16.77;;;;;;;9.63;100.00;93616.41;5068713;28;20041;-72
2023/05/13 04:33:55;;;;;;;21.77;16.88;;;;;;;9.66;100.00;93613.44;5068983;28;20053;-72
2023/05/13 04:36:22;;;;;;;24.83;16.73;;;;;;;9.68;100.00;93615.81;5054636;28;20051;-72
2023/05/13 04:38:49;;;;;;;20.85;15.40;;;;;;;9.60;100.00;93607.31;5068552;28;20048;-72
2023/05/13 04:41:15;;;;;;;21.77;15.82;;;;;;;9.67;100.00;93620.16;5055116;28;20159;-72
2023/05/13 04:43:42;;;;;;;25.13;17.75;;;;;;;9.72;100.00;93617.78;5068813;28;20098;-72
2023/05/13 04:46:09;;;;;;;24.10;16.77;;;;;;;9.80;100.00;93616.03;5068301;28;20044;-72
2023/05/13 04:48:37;;;;;;;24.25;16.08;;;;;;;9.83;100.00;93613.09;5068548;28;20041;-72
2023/05/13 04:51:04;;;;;;;25.20;16.38;;;;;;;9.62;100.00;93612.25;5068064;28;20500;-72
2023/05/13 04:53:30;;;;;;;23.35;17.30;;;;;;;9.67;100.00;93611.69;5067823;28;20053;-72
2023/05/13 04:55:59;;;;;;;25.15;16.25;;;;;;;9.47;100.00;93592.69;5067572;28;20418;-72
2023/05/13 04:58:26;;;;;;;21.08;15.82;;;;;;;9.57;100.00;93597.44;5068084;28;20509;-72
2023/05/13 05:00:53;;;;;;;21.83;16.75;;;;;;;9.65;100.00;93587.97;5068077;28;20483;-72
2023/05/13 05:03:20;;;;;;;25.40;16.60;;;;;;;9.73;100.00;93593.72;5068037;28;20049;-72
2023/05/13 05:05:49;;;;;;;23.85;15.95;;;;;;;9.87;100.00;93594.53;5067899;28;20556;-72
2023/05/13 05:08:16;;;;;;;21.90;15.52;;;;;;;9.98;100.00;93605.22;5067886;28;20055;-72
2023/05/13 05:10:43;;;;;;;21.80;15.50;;;;;;;10.10;100.00;93610.56;5067713;28;20044;-72
2023/05/13 05:13:10;;;;;;;21.25;15.52;;;;;;;10.19;100.00;93621.44;5068291;28;20076;-72
2023/05/13 05:15:37;;;;;;;23.80;16.75;;;;;;;10.37;100.00;93613.91;5067601;28;20127;-72
2023/05/13 05:18:05;;;;;;;24.23;17.85;;;;;;;10.51;100.00;93613.94;5067766;28;20060;-72
2023/05/13 05:20:32;;;;;;;21.17;15.98;;;;;;;10.62;100.00;93620.25;5067867;28;20136;-72
2023/05/13 05:23:00;;;;;;;22.08;15.55;;;;;;;10.75;100.00;93622.03;5067669;28;20110;-72
2023/05/13 05:25:27;;;;;;;22.52;15.82;;;;;;;10.74;100.00;93616.09;5067157;28;20048;-72
2023/05/13 05:27:53;;;;;;;21.17;14.85;;;;;;;10.75;100.00;93616.88;5067304;28;20040;-72
2023/05/13 05:30:20;;;;;;;20.80;14.65;;;;;;;10.78;100.00;93616.50;5067496;28;20444;-72
2023/05/13 05:32:47;;;;;;;24.83;15.38;;;;;;;10.87;100.00;93622.97;5067907;28;20056;-71
2023/05/13 05:35:15;;;;;;;19.25;13.98;;;;;;;10.99;100.00;93622.38;5067606;28;20106;-72
2023/05/13 05:37:42;;;;;;;19.58;14.07;;;;;;;11.08;100.00;93627.06;5067344;28;20048;-72
2023/05/13 05:40:11;;;;;;;21.73;14.90;;;;;;;11.18;100.00;93618.16;5067480;28;20049;-72
2023/05/13 05:42:38;;;;;;;18.52;13.40;;;;;;;11.09;100.00;93622.75;5067092;28;20574;-72
2023/05/13 05:45:05;;;;;;;17.60;12.65;;;;;;;11.02;100.00;93621.97;5067255;28;20067;-72
2023/05/13 05:47:32;;;;;;;16.23;11.82;;;;;;;11.04;100.00;93625.13;5066947;28;20056;-72
2023/05/13 05:49:59;;;;;;;23.23;14.77;;;;;;;11.06;100.00;93618.78;5067578;28;20045;-72
2023/05/13 05:52:25;;;;;;;19.52;13.48;;;;;;;11.17;100.00;93635.38;5067455;28;20409;-72
2023/05/13 05:54:52;;;;;;;18.20;13.00;;;;;;;11.28;100.00;93639.09;5066855;28;20044;-72
2023/05/13 05:57:20;;;;;;;24.05;14.80;;;;;;;11.35;100.00;93629.56;5066946;28;20516;-72
2023/05/13 05:59:47;;;;;;;20.80;13.20;;;;;;;11.47;100.00;93629.72;5067411;28;20359;-72
2023/05/13 06:02:14;;;;;;;16.30;12.02;;;;;;;11.62;100.00;93631.25;5052130;28;20071;-72
2023/05/13 06:04:41;;;;;;;19.90;12.98;;;;;;;11.80;100.00;93637.50;5067676;28;20073;-72
2023/05/13 06:07:08;;;;;;;15.27;11.98;;;;;;;11.96;100.00;93637.03;5067082;28;20055;-72
2023/05/13 06:09:35;;;;;;;17.60;11.98;;;;;;;12.07;100.00;93645.88;5066435;28;20044;-72
2023/05/13 06:12:01;;;;;;;15.38;11.13;;;;;;;12.17;100.00;93640.28;5063643;28;20044;-72
2023/05/13 06:14:30;;;;;;;16.85;10.88;;;;;;;12.27;100.00;93640.59;5056727;28;20056;-72
2023/05/13 06:16:56;;;;;;;19.63;10.65;;;;;;;12.38;100.00;93641.72;5067089;28;20123;-72
2023/05/13 06:19:23;;;;;;;20.92;11.07;;;;;;;12.50;100.00;93643.63;5067097;28;20049;-73
2023/05/13 06:21:50;;;;;;;18.42;12.68;;;;;;;12.56;100.00;93645.34;5062828;28;20794;-72
2023/05/13 06:24:17;;;;;;;15.23;11.32;;;;;;;12.58;100.00;93640.75;5057645;28;20099;-73
2023/05/13 06:26:44;;;;;;;18.98;10.55;;;;;;;12.66;100.00;93635.34;5067087;28;20045;-73
2023/05/13 06:29:10;;;;;;;12.27;8.05;;;;;;;12.67;100.00;93633.56;5066778;28;20084;-72
2023/05/13 06:31:39;;;;;;;10.73;8.55;;;;;;;12.83;100.00;93648.47;5066713;28;20040;-72
2023/05/13 06:34:06;;;;;;;17.02;10.27;;;;;;;12.90;100.00;93650.19;5067391;28;20432;-72
2023/05/13 06:36:32;;;;;;;20.23;9.82;;;;;;;13.00;100.00;93652.31;5054904;28;20116;-72
2023/05/13 06:39:00;;;;;;;14.35;9.18;;;;;;;13.12;100.00;93642.06;5070886;28;20060;-72
2023/05/13 06:41:26;;;;;;;14.15;9.10;;;;;;;13.12;100.00;93632.53;5070817;28;20040;-72
2023/05/13 06:43:53;;;;;;;11.30;8.77;;;;;;;13.25;100.00;93631.63;5070503;28;20049;-72
2023/05/13 06:46:20;;;;;;;15.80;10.77;;;;;;;13.42;100.00;93642.13;5070714;28;20044;-71
2023/05/13 06:48:51;;;;;;;17.38;12.40;;;;;;;13.56;100.00;93640.22;5070650;28;20045;-72
2023/05/13 06:51:17;;;;;;;15.98;11.25;;;;;;;13.65;100.00;93643.28;5065985;28;20048;-72
2023/05/13 06:53:45;;;;;;;14.88;10.52;;;;;;;13.73;100.00;93643.00;5070543;28;20048;-72
2023/05/13 06:56:11;;;;;;;14.05;10.90;;;;;;;13.79;100.00;93637.97;5070425;28;20044;-72
2023/05/13 06:58:38;;;;;;;11.60;8.50;;;;;;;13.55;100.00;93627.50;5070087;28;20040;-72
2023/05/13 07:01:05;;;;;;;13.35;9.32;;;;;;;13.90;100.00;93648.31;5070232;28;20094;-72
2023/05/13 07:03:32;;;;;;;13.10;9.10;;;;;;;14.25;100.00;93651.22;5070091;28;20063;-72
2023/05/13 07:06:00;;;;;;;11.52;8.75;;;;;;;14.65;100.00;93648.06;5069954;28;20059;-72
2023/05/13 07:08:27;;;;;;;14.45;8.70;;;;;;;15.04;100.00;93647.63;5070172;28;20400;-72
2023/05/13 07:10:53;;;;;;;11.43;8.43;;;;;;;15.38;100.00;93654.78;5070330;28;20048;-72
2023/05/13 07:13:21;;;;;;;8.50;6.55;;;;;;;15.63;100.00;93648.53;5069951;28;20044;-72
2023/05/13 07:15:47;;;;;;;10.02;7.57;;;;;;;15.92;100.00;93664.06;5070514;28;20052;-72
2023/05/13 07:18:14;;;;;;;10.45;7.50;;;;;;;16.09;100.00;93661.56;5069871;28;20052;-72
2023/05/13 07:20:41;;;;;;;8.00;6.32;;;;;;;16.34;100.00;93665.59;5069690;28;20072;-72
2023/05/13 07:23:09;;;;;;;11.55;8.10;;;;;;;16.52;100.00;93651.63;5070188;28;20048;-72
2023/05/13 07:25:36;;;;;;;11.57;7.80;;;;;;;16.74;100.00;93666.50;5070036;28;20427;-72
2023/05/13 07:28:03;;;;;;;12.45;8.15;;;;;;;16.77;100.00;93650.47;5070055;28;20435;-72
2023/05/13 07:30:30;;;;;;;9.65;7.57;;;;;;;16.98;100.00;93666.31;5069890;28;20045;-72
2023/05/13 07:32:57;;;;;;;12.05;8.80;;;;;;;17.09;100.00;93667.28;5069533;28;20139;-72
2023/05/13 07:35:24;;;;;;;12.15;8.77;;;;;;;17.12;100.00;93668.63;5069235;28;20590;-72
2023/05/13 07:37:50;;;;;;;12.93;8.65;;;;;;;17.04;100.00;93664.59;5069420;28;20147;-72
2023/05/13 07:40:19;;;;;;;10.45;8.52;;;;;;;16.87;100.00;93667.19;5069938;28;20420;-72
2023/05/13 07:42:46;;;;;;;14.95;9.55;;;;;;;16.80;100.00;93672.56;5069633;28;20049;-72
2023/05/13 07:45:13;;;;;;;13.43;9.27;;;;;;;16.75;100.00;93675.84;5069469;28;20141;-72
2023/05/13 07:47:40;;;;;;;14.63;9.20;;;;;;;16.73;100.00;93677.09;5067934;28;20044;-72
2023/05/13 07:50:08;;;;;;;12.55;9.60;;;;;;;16.86;100.00;93673.41;5069281;28;20504;-72
2023/05/13 07:52:35;;;;;;;10.48;8.75;;;;;;;17.09;100.00;93680.25;5068834;28;20044;-72
2023/05/13 07:55:02;;;;;;;9.70;8.20;;;;;;;17.30;100.00;93673.53;5069242;28;20041;-72
2023/05/13 07:57:30;;;;;;;11.05;8.77;;;;;;;17.40;100.00;93679.88;5069329;28;20493;-72
2023/05/13 07:59:56;;;;;;;12.02;9.38;;;;;;;17.48;98.58;93676.84;5069717;28;20102;-72
2023/05/13 08:02:24;;;;;;;13.70;9.30;;;;;;;17.57;96.13;93669.41;5068356;28;20044;-72
2023/05/13 08:04:51;;;;;;;13.27;9.68;;;;;;;17.66;97.42;93675.78;5054872;28;20554;-72
2023/05/13 08:07:17;;;;;;;12.15;8.82;;;;;;;17.63;96.84;93677.03;5068759;28;20084;-72
2023/05/13 08:09:44;;;;;;;11.93;9.35;;;;;;;17.84;95.87;93668.69;5068827;28;20527;-72
2023/05/13 08:12:11;;;;;;;11.75;8.93;;;;;;;17.82;97.08;93668.94;5068674;28;20550;-72
2023/05/13 08:14:39;;;;;;;10.90;9.40;;;;;;;17.95;96.49;93662.56;5068968;28;20052;-72
2023/05/13 08:17:06;;;;;;;13.23;9.13;;;;;;;18.00;95.08;93664.44;5069065;28;20053;-72
2023/05/13 08:19:33;;;;;;;11.60;9.27;;;;;;;18.02;94.04;93668.34;5042323;28;20040;-72
2023/05/13 08:22:00;;;;;;;10.50;8.20;;;;;;;17.77;94.92;93668.88;5068585;28;20049;-72
2023/05/13 08:24:27;;;;;;;10.77;7.55;;;;;;;17.82;94.46;93663.72;5068956;28;20040;-72
2023/05/13 08:26:53;;;;;;;9.48;7.50;;;;;;;17.63;94.26;93665.84;5068914;28;20055;-73
2023/05/13 08:29:20;;;;;;;10.48;8.07;;;;;;;17.75;94.03;93663.94;5068646;28;20534;-72
2023/05/13 08:31:48;;;;;;;9.27;7.85;;;;;;;17.89;93.69;93663.56;5067995;28;20048;-72
2023/05/13 08:34:15;;;;;;;11.93;8.00;;;;;;;17.97;92.78;93660.50;5068662;28;20048;-72
2023/05/13 08:36:42;;;;;;;11.60;7.68;;;;;;;18.20;93.75;93657.91;5054925;28;20053;-71
2023/05/13 08:39:09;;;;;;;12.25;7.40;;;;;;;18.40;91.13;93642.50;5068764;28;20048;-70
2023/05/13 08:41:37;;;;;;;9.80;6.95;;;;;;;18.50;90.67;93648.78;5068139;28;20088;-70
2023/05/13 08:44:05;;;;;;;13.38;8.15;;;;;;;18.76;92.62;93654.19;5068031;28;20045;-70
2023/05/13 08:46:33;;;;;;;11.50;7.18;;;;;;;18.99;90.01;93654.84;5068400;28;20054;-70
2023/05/13 08:49:02;;;;;;;11.27;7.07;;;;;;;19.01;86.00;93665.78;5068417;28;20155;-71
2023/05/13 08:51:29;;;;;;;8.10;6.97;;;;;;;18.90;87.23;93662.34;5068569;28;20041;-70
2023/05/13 08:53:56;;;;;;;9.52;6.90;;;;;;;19.05;86.12;93646.06;5068123;28;20044;-70
2023/05/13 08:56:27;;;;;;;11.40;7.38;;;;;;;19.35;86.41;93655.88;5068338;28;20390;-72
2023/05/13 08:58:53;;;;;;;8.07;6.78;;;;;;;19.47;83.67;93655.66;5068276;28;20075;-72
2023/05/13 09:01:21;;;;;;;10.40;7.15;;;;;;;19.72;85.75;93653.41;5068006;28;20500;-72
2023/05/13 09:03:55;;;;;;;7.40;5.93;;;;;;;19.79;79.96;93658.38;5061087;28;20504;-72
2023/05/13 09:06:23;;;;;;;9.77;7.30;;;;;;;19.93;82.82;93654.25;5058155;28;20505;-73
2023/05/13 09:08:50;;;;;;;7.97;7.00;;;;;;;20.03;82.25;93650.91;5067919;28;20052;-72
2023/05/13 09:11:17;;;;;;;9.65;6.20;;;;;;;20.13;81.59;93650.94;5067613;28;20057;-72
2023/05/13 09:13:44;;;;;;;10.07;7.10;;;;;;;20.20;81.62;93650.69;5063338;28;20085;-72
2023/05/13 09:16:12;;;;;;;8.18;7.03;;;;;;;20.25;82.42;93647.28;5058010;28;20049;-72
2023/05/13 09:18:40;;;;;;;8.85;6.38;;;;;;;20.41;82.91;93629.84;5054384;28;20064;-72
2023/05/13 09:21:24;;;;;;;6.28;5.65;;;;;;;20.37;77.29;93645.22;5068036;28;20055;-71
2023/05/13 09:23:56;;;;;;;8.20;6.53;;;;;;;20.56;78.92;93645.47;5041724;28;20067;-71
2023/05/13 09:26:30;;;;;;;8.65;6.63;;;;;;;20.82;78.42;93644.69;5067269;28;20056;-70
2023/05/13 09:29:22;;;;;;;9.13;6.80;;;;;;;20.87;77.52;93630.88;5068003;28;20064;-72
2023/05/13 09:31:50;;;;;;;5.75;5.00;;;;;;;20.74;73.72;93624.34;5066657;28;20048;-72
2023/05/13 09:34:25;;;;;;;7.25;5.10;;;;;;;20.58;74.84;93613.91;5067334;28;20044;-72
2023/05/13 09:37:00;;;;;;;8.60;6.35;;;;;;;20.62;76.63;93604.50;5042697;28;20509;-70
2023/05/13 09:39:28;;;;;;;;;;;;;;;20.92;75.42;93612.59;5067425;28;20416;-70
2023/05/13 09:41:55;;;;;;;6.38;5.75;;;;;;;21.08;75.81;93598.47;5067408;28;20367;-70
2023/05/13 09:44:22;;;;;;;7.00;6.10;;;;;;;21.16;77.60;93593.72;5053802;28;20517;-71
2023/05/13 09:46:51;;;;;;;8.52;6.50;;;;;;;21.13;76.46;93605.50;5067039;28;20437;-71
2023/05/13 09:49:18;;;;;;;7.63;5.50;;;;;;;21.12;75.11;93608.34;5067428;28;20045;-71
2023/05/13 09:51:45;;;;;;;9.45;5.70;;;;;;;21.29;75.64;93608.81;5067396;28;20049;-71
2023/05/13 09:54:13;;;;;;;5.30;4.57;;;;;;;21.36;70.50;93614.56;5066707;28;20127;-71
2023/05/13 09:56:40;;;;;;;6.05;4.85;;;;;;;21.46;69.09;93618.16;5067456;28;20059;-71
2023/05/13 09:59:06;;;;;;;9.18;5.47;;;;;;;21.36;72.77;93611.94;5067527;28;20041;-71
2023/05/13 10:01:35;;;;;;;9.45;5.20;;;;;;;21.51;70.85;93607.69;5067062;28;20157;-71
2023/05/13 10:04:04;;;;;;;6.18;4.65;;;;;;;21.60;69.46;93621.78;5067217;28;20054;-71
2023/05/13 10:06:32;;;;;;;5.57;4.32;;;;;;;21.61;64.28;93617.31;5066841;28;20052;-71
2023/05/13 10:09:02;;;;;;;12.82;6.18;;;;;;;21.58;70.53;93613.41;5066939;28;20057;-71
2023/05/13 10:11:33;;;;;;;7.70;4.60;;;;;;;21.61;66.90;93614.69;5066220;28;20056;-71
2023/05/13 10:14:01;;;;;;;7.20;5.25;;;;;;;21.74;68.50;93616.78;5066764;28;20585;-71
2023/05/13 10:16:29;;;;;;;5.07;4.57;;;;;;;21.79;65.75;93609.97;5067230;28;20090;-71
2023/05/13 10:18:57;;;;;;;9.85;4.63;;;;;;;21.89;66.41;93605.44;5066947;28;20115;-71
2023/05/13 10:21:24;;;;;;;11.00;4.63;;;;;;;21.92;67.20;93598.88;5067140;28;20568;-71
2023/05/13 10:23:51;;;;;;;7.90;4.60;;;;;;;21.98;67.27;93586.56;5066987;28;20084;-71
2023/05/13 10:26:21;;;;;;;6.00;4.95;;;;;;;22.01;63.55;93614.78;5066712;28;20051;-71
2023/05/13 10:29:09;;;;;;;6.55;5.07;;;;;;;22.19;67.03;93605.50;5067217;28;20053;-71
2023/05/13 10:31:37;;;;;;;3.85;3.45;;;;;;;22.18;57.55;93603.16;5067116;28;20571;-71
2023/05/13 10:34:04;;;;;;;6.75;4.25;;;;;;;22.30;62.11;93598.34;5066752;28;20060;-71
2023/05/13 10:36:46;;;;;;;3.72;3.03;;;;;;;21.65;55.57;93610.50;5066662;28;20045;-71
2023/05/13 10:39:40;;;;;;;7.53;4.32;;;;;;;21.92;62.41;93598.09;5066586;28;20558;-71
2023/05/13 10:42:39;;;;;;;7.63;4.95;;;;;;;21.96;62.39;93601.75;5053298;28;20045;-71
2023/05/13 10:45:08;;;;;;;6.63;4.35;;;;;;;21.85;60.13;93598.41;4995488;28;20047;-71
2023/05/13 10:47:36;;;;;;;6.28;4.00;;;;;;;21.80;61.27;93609.66;5026404;28;20053;-71
2023/05/13 10:50:06;;;;;;;5.25;4.00;;;;;;;21.78;59.71;93606.56;5063080;28;20045;-71
2023/05/13 10:52:46;;;;;;;11.55;4.90;;;;;;;21.79;62.04;93609.97;5066851;28;20552;-71
2023/05/13 10:55:17;;;;;;;8.05;4.90;;;;;;;21.18;59.46;93579.34;5054628;28;20048;-71
2023/05/13 10:58:08;;;;;;;7.90;3.72;;;;;;;20.22;62.51;93606.84;5062351;28;20044;-71
2023/05/13 11:00:37;;;;;;;13.07;5.28;;;;;;;19.23;66.08;93598.78;5059269;28;20045;-71
2023/05/13 11:03:15;;;;;;;7.55;4.93;;;;;;;19.20;69.90;93599.28;5066418;28;20126;-71
2023/05/13 11:05:44;;;;;;;6.65;4.80;;;;;;;19.00;71.61;93599.94;5066406;28;20123;-71
2023/05/13 11:08:11;;;;;;;6.20;4.07;;;;;;;18.03;67.96;93601.56;5066057;28;20048;-71
2023/05/13 11:10:40;;;;;;;6.00;3.92;;;;;;;18.07;70.65;93594.88;5060944;28;20051;-71
2023/05/13 11:13:23;;;;;;;5.85;4.53;;;;;;;18.28;73.05;93575.03;5058713;28;20072;-71
2023/05/13 11:15:53;;;;;;;6.57;3.22;;;;;;;18.07;65.25;93597.47;5040827;28;20052;-71
2023/05/13 11:18:21;;;;;;;6.05;3.47;;;;;;;18.00;68.96;93602.84;5066440;28;20059;-71
2023/05/13 11:20:53;;;;;;;5.25;3.53;;;;;;;18.01;71.68;93599.22;5066268;28;20048;-71
2023/05/13 11:23:21;;;;;;;5.05;2.60;;;;;;;17.84;66.96;93583.75;5069494;28;20052;-71
2023/05/13 11:26:13;;;;;;;5.25;3.60;;;;;;;18.48;63.20;93583.22;5070161;28;20062;-71